sensor_id;sensor_type;location;lat;lon;timestamp;P1;durP1;ratioP1;P2;durP2;ratioP2
18726;SDS011;9492;51.888;5.186;2023-02-15T00:00:43;23.53;;;16.93;;
18726;SDS011;9492;51.888;5.186;2023-02-15T00:03:09;24.07;;;16.63;;
18726;SDS011;9492;51.888;5.186;2023-02-15T00:05:34;24.93;;;16.90;;
18726;SDS011;9492;51.888;5.186;2023-02-15T00:08:00;26.70;;;17.27;;
18726;SDS011;9492;51.888;5.186;2023-02-15T00:10:26;32.70;;;20.27;;
18726;SDS011;9492;51.888;5.186;2023-02-15T00:12:52;27.37;;;17.67;;
18726;SDS011;9492;51.888;5.186;2023-02-15T00:15:18;24.80;;;16.93;;
18726;SDS011;9492;51.888;5.186;2023-02-15T00:17:44;25.53;;;16.87;;
18726;SDS011;9492;51.888;5.186;2023-02-15T00:20:10;25.70;;;16.17;;
18726;SDS011;9492;51.888;5.186;2023-02-15T00:22:36;30.27;;;17.93;;
18726;SDS011;9492;51.888;5.186;2023-02-15T00:25:03;28.30;;;18.23;;
18726;SDS011;9492;51.888;5.186;2023-02-15T00:27:29;28.97;;;19.57;;
18726;SDS011;9492;51.888;5.186;2023-02-15T00:29:58;27.07;;;19.27;;
18726;SDS011;9492;51.888;5.186;2023-02-15T00:32:24;32.80;;;21.70;;
18726;SDS011;9492;51.888;5.186;2023-02-15T00:34:50;30.10;;;18.90;;
18726;SDS011;9492;51.888;5.186;2023-02-15T00:37:16;32.53;;;20.47;;
18726;SDS011;9492;51.888;5.186;2023-02-15T00:39:42;31.33;;;20.40;;
18726;SDS011;9492;51.888;5.186;2023-02-15T00:42:08;32.90;;;20.60;;
18726;SDS011;9492;51.888;5.186;2023-02-15T00:44:34;31.93;;;19.27;;
18726;SDS011;9492;51.888;5.186;2023-02-15T00:47:00;31.03;;;18.63;;
18726;SDS011;9492;51.888;5.186;2023-02-15T00:49:26;30.67;;;19.13;;
18726;SDS011;9492;51.888;5.186;2023-02-15T00:51:52;32.00;;;20.87;;
18726;SDS011;9492;51.888;5.186;2023-02-15T00:54:18;30.83;;;18.53;;
18726;SDS011;9492;51.888;5.186;2023-02-15T00:56:44;34.17;;;19.53;;
18726;SDS011;9492;51.888;5.186;2023-02-15T00:59:10;26.80;;;17.87;;
18726;SDS011;9492;51.888;5.186;2023-02-15T01:01:36;34.93;;;19.47;;
18726;SDS011;9492;51.888;5.186;2023-02-15T01:04:03;32.97;;;19.47;;
18726;SDS011;9492;51.888;5.186;2023-02-15T01:06:29;33.20;;;20.80;;
18726;SDS011;9492;51.888;5.186;2023-02-15T01:08:55;31.60;;;20.80;;
18726;SDS011;9492;51.888;5.186;2023-02-15T01:11:22;30.53;;;19.50;;
18726;SDS011;9492;51.888;5.186;2023-02-15T01:13:49;29.73;;;17.00;;
18726;SDS011;9492;51.888;5.186;2023-02-15T01:16:15;24.90;;;16.53;;
18726;SDS011;9492;51.888;5.186;2023-02-15T01:18:41;22.03;;;15.57;;
18726;SDS011;9492;51.888;5.186;2023-02-15T01:21:14;27.80;;;16.60;;
18726;SDS011;9492;51.888;5.186;2023-02-15T01:23:41;26.90;;;15.40;;
18726;SDS011;9492;51.888;5.186;2023-02-15T01:26:07;24.47;;;15.67;;
18726;SDS011;9492;51.888;5.186;2023-02-15T01:28:33;26.43;;;16.77;;
18726;SDS011;9492;51.888;5.186;2023-02-15T01:31:04;28.30;;;16.47;;
18726;SDS011;9492;51.888;5.186;2023-02-15T01:33:30;23.87;;;15.77;;
18726;SDS011;9492;51.888;5.186;2023-02-15T01:35:56;20.80;;;15.10;;
18726;SDS011;9492;51.888;5.186;2023-02-15T01:38:24;21.50;;;14.90;;
18726;SDS011;9492;51.888;5.186;2023-02-15T01:40:51;26.33;;;15.60;;
18726;SDS011;9492;51.888;5.186;2023-02-15T01:43:17;21.73;;;14.90;;
18726;SDS011;9492;51.888;5.186;2023-02-15T01:45:43;23.07;;;14.83;;
18726;SDS011;9492;51.888;5.186;2023-02-15T01:48:24;26.43;;;17.43;;
18726;SDS011;9492;51.888;5.186;2023-02-15T01:50:53;26.10;;;16.80;;
18726;SDS011;9492;51.888;5.186;2023-02-15T01:56:29;31.80;;;18.07;;
18726;SDS011;9492;51.888;5.186;2023-02-15T01:58:35;25.93;;;17.33;;
18726;SDS011;9492;51.888;5.186;2023-02-15T02:01:02;30.53;;;18.50;;
18726;SDS011;9492;51.888;5.186;2023-02-15T02:03:45;30.20;;;18.57;;
18726;SDS011;9492;51.888;5.186;2023-02-15T02:06:14;23.80;;;16.03;;
18726;SDS011;9492;51.888;5.186;2023-02-15T02:08:41;28.00;;;17.13;;
18726;SDS011;9492;51.888;5.186;2023-02-15T02:11:11;28.23;;;18.30;;
18726;SDS011;9492;51.888;5.186;2023-02-15T02:13:37;28.07;;;17.90;;
18726;SDS011;9492;51.888;5.186;2023-02-15T02:24:07;25.97;;;17.53;;
18726;SDS011;9492;51.888;5.186;2023-02-15T02:36:50;30.03;;;17.97;;
18726;SDS011;9492;51.888;5.186;2023-02-15T02:41:55;28.60;;;17.97;;
18726;SDS011;9492;51.888;5.186;2023-02-15T02:44:27;27.33;;;16.60;;
18726;SDS011;9492;51.888;5.186;2023-02-15T02:46:58;26.73;;;17.07;;
18726;SDS011;9492;51.888;5.186;2023-02-15T02:52:07;29.03;;;18.53;;
18726;SDS011;9492;51.888;5.186;2023-02-15T02:54:36;28.17;;;17.03;;
18726;SDS011;9492;51.888;5.186;2023-02-15T02:57:03;31.50;;;16.60;;
18726;SDS011;9492;51.888;5.186;2023-02-15T02:59:32;28.53;;;18.43;;
18726;SDS011;9492;51.888;5.186;2023-02-15T03:02:05;27.77;;;18.23;;
18726;SDS011;9492;51.888;5.186;2023-02-15T03:04:37;28.33;;;18.20;;
18726;SDS011;9492;51.888;5.186;2023-02-15T03:07:05;31.10;;;18.00;;
18726;SDS011;9492;51.888;5.186;2023-02-15T03:09:34;27.57;;;17.50;;
18726;SDS011;9492;51.888;5.186;2023-02-15T03:12:15;30.20;;;19.33;;
18726;SDS011;9492;51.888;5.186;2023-02-15T03:14:42;30.67;;;19.10;;
18726;SDS011;9492;51.888;5.186;2023-02-15T03:17:08;30.33;;;18.40;;
18726;SDS011;9492;51.888;5.186;2023-02-15T03:19:36;26.07;;;17.53;;
18726;SDS011;9492;51.888;5.186;2023-02-15T03:22:04;31.93;;;19.00;;
18726;SDS011;9492;51.888;5.186;2023-02-15T03:27:15;29.50;;;17.60;;
18726;SDS011;9492;51.888;5.186;2023-02-15T03:29:48;27.87;;;18.27;;
18726;SDS011;9492;51.888;5.186;2023-02-15T03:32:15;31.23;;;17.93;;
18726;SDS011;9492;51.888;5.186;2023-02-15T03:34:42;26.70;;;16.80;;
18726;SDS011;9492;51.888;5.186;2023-02-15T03:37:26;27.67;;;17.97;;
18726;SDS011;9492;51.888;5.186;2023-02-15T03:43:00;24.13;;;16.67;;
18726;SDS011;9492;51.888;5.186;2023-02-15T03:45:29;30.90;;;18.23;;
18726;SDS011;9492;51.888;5.186;2023-02-15T03:47:56;31.13;;;17.93;;
18726;SDS011;9492;51.888;5.186;2023-02-15T03:50:27;28.03;;;18.00;;
18726;SDS011;9492;51.888;5.186;2023-02-15T03:53:14;27.53;;;17.13;;
18726;SDS011;9492;51.888;5.186;2023-02-15T03:55:40;30.97;;;17.27;;
18726;SDS011;9492;51.888;5.186;2023-02-15T03:58:06;30.60;;;18.53;;
18726;SDS011;9492;51.888;5.186;2023-02-15T04:00:54;31.93;;;20.70;;
18726;SDS011;9492;51.888;5.186;2023-02-15T04:06:11;40.53;;;23.30;;
18726;SDS011;9492;51.888;5.186;2023-02-15T04:08:36;35.27;;;21.33;;
18726;SDS011;9492;51.888;5.186;2023-02-15T04:11:24;30.43;;;18.37;;
18726;SDS011;9492;51.888;5.186;2023-02-15T04:13:53;34.83;;;20.83;;
18726;SDS011;9492;51.888;5.186;2023-02-15T04:16:21;34.17;;;20.23;;
18726;SDS011;9492;51.888;5.186;2023-02-15T04:18:47;28.07;;;18.57;;
18726;SDS011;9492;51.888;5.186;2023-02-15T04:21:31;33.17;;;20.63;;
18726;SDS011;9492;51.888;5.186;2023-02-15T04:24:16;32.23;;;19.77;;
18726;SDS011;9492;51.888;5.186;2023-02-15T04:27:01;30.60;;;18.23;;
18726;SDS011;9492;51.888;5.186;2023-02-15T04:29:28;27.80;;;18.03;;
18726;SDS011;9492;51.888;5.186;2023-02-15T04:31:55;30.00;;;17.73;;
18726;SDS011;9492;51.888;5.186;2023-02-15T04:34:23;28.80;;;16.57;;
18726;SDS011;9492;51.888;5.186;2023-02-15T04:36:49;29.53;;;17.67;;
18726;SDS011;9492;51.888;5.186;2023-02-15T04:39:16;29.50;;;17.90;;
18726;SDS011;9492;51.888;5.186;2023-02-15T04:41:42;27.73;;;18.17;;
18726;SDS011;9492;51.888;5.186;2023-02-15T04:44:08;28.33;;;17.73;;
18726;SDS011;9492;51.888;5.186;2023-02-15T04:46:34;25.93;;;16.97;;
18726;SDS011;9492;51.888;5.186;2023-02-15T04:49:00;26.60;;;16.30;;
18726;SDS011;9492;51.888;5.186;2023-02-15T04:51:26;28.77;;;17.67;;
18726;SDS011;9492;51.888;5.186;2023-02-15T04:53:52;31.77;;;17.43;;
18726;SDS011;9492;51.888;5.186;2023-02-15T04:56:19;28.70;;;17.67;;
18726;SDS011;9492;51.888;5.186;2023-02-15T04:58:45;29.00;;;17.43;;
18726;SDS011;9492;51.888;5.186;2023-02-15T05:01:11;29.03;;;17.87;;
18726;SDS011;9492;51.888;5.186;2023-02-15T05:03:46;34.03;;;18.03;;
18726;SDS011;9492;51.888;5.186;2023-02-15T05:06:15;27.50;;;17.57;;
18726;SDS011;9492;51.888;5.186;2023-02-15T05:08:41;29.13;;;17.47;;
18726;SDS011;9492;51.888;5.186;2023-02-15T05:11:07;25.63;;;16.80;;
18726;SDS011;9492;51.888;5.186;2023-02-15T05:13:33;29.83;;;17.40;;
18726;SDS011;9492;51.888;5.186;2023-02-15T05:15:59;28.13;;;17.67;;
18726;SDS011;9492;51.888;5.186;2023-02-15T05:18:25;27.03;;;17.47;;
18726;SDS011;9492;51.888;5.186;2023-02-15T05:20:51;27.83;;;18.00;;
18726;SDS011;9492;51.888;5.186;2023-02-15T05:23:17;28.50;;;18.27;;
18726;SDS011;9492;51.888;5.186;2023-02-15T05:25:47;27.77;;;17.60;;
18726;SDS011;9492;51.888;5.186;2023-02-15T05:28:32;29.33;;;17.63;;
18726;SDS011;9492;51.888;5.186;2023-02-15T05:31:08;28.40;;;17.30;;
18726;SDS011;9492;51.888;5.186;2023-02-15T05:33:35;27.10;;;17.83;;
18726;SDS011;9492;51.888;5.186;2023-02-15T05:36:01;26.93;;;16.60;;
18726;SDS011;9492;51.888;5.186;2023-02-15T05:38:28;30.03;;;18.53;;
18726;SDS011;9492;51.888;5.186;2023-02-15T05:40:54;28.63;;;17.07;;
18726;SDS011;9492;51.888;5.186;2023-02-15T05:43:20;33.27;;;17.30;;
18726;SDS011;9492;51.888;5.186;2023-02-15T05:45:47;25.57;;;16.57;;
18726;SDS011;9492;51.888;5.186;2023-02-15T05:48:13;25.80;;;16.47;;
18726;SDS011;9492;51.888;5.186;2023-02-15T05:50:39;28.30;;;17.33;;
18726;SDS011;9492;51.888;5.186;2023-02-15T05:53:05;28.93;;;17.27;;
18726;SDS011;9492;51.888;5.186;2023-02-15T05:55:31;31.40;;;17.97;;
18726;SDS011;9492;51.888;5.186;2023-02-15T05:57:57;29.47;;;16.97;;
18726;SDS011;9492;51.888;5.186;2023-02-15T06:00:23;29.53;;;17.90;;
18726;SDS011;9492;51.888;5.186;2023-02-15T06:02:50;27.53;;;17.53;;
18726;SDS011;9492;51.888;5.186;2023-02-15T06:05:16;30.37;;;17.50;;
18726;SDS011;9492;51.888;5.186;2023-02-15T06:07:42;33.80;;;18.83;;
18726;SDS011;9492;51.888;5.186;2023-02-15T06:10:12;33.70;;;18.53;;
18726;SDS011;9492;51.888;5.186;2023-02-15T06:12:44;33.50;;;19.53;;
18726;SDS011;9492;51.888;5.186;2023-02-15T06:15:10;28.13;;;18.40;;
18726;SDS011;9492;51.888;5.186;2023-02-15T06:17:36;29.30;;;18.57;;
18726;SDS011;9492;51.888;5.186;2023-02-15T06:20:02;31.03;;;17.53;;
18726;SDS011;9492;51.888;5.186;2023-02-15T06:22:28;39.73;;;19.40;;
18726;SDS011;9492;51.888;5.186;2023-02-15T06:24:54;26.13;;;17.53;;
18726;SDS011;9492;51.888;5.186;2023-02-15T06:27:20;28.03;;;18.87;;
18726;SDS011;9492;51.888;5.186;2023-02-15T06:29:46;28.77;;;17.90;;
18726;SDS011;9492;51.888;5.186;2023-02-15T06:32:12;32.60;;;18.27;;
18726;SDS011;9492;51.888;5.186;2023-02-15T06:34:38;29.93;;;19.73;;
18726;SDS011;9492;51.888;5.186;2023-02-15T06:37:07;32.13;;;19.73;;
18726;SDS011;9492;51.888;5.186;2023-02-15T06:39:33;29.00;;;17.73;;
18726;SDS011;9492;51.888;5.186;2023-02-15T06:41:59;32.90;;;20.37;;
18726;SDS011;9492;51.888;5.186;2023-02-15T06:44:25;29.97;;;18.97;;
18726;SDS011;9492;51.888;5.186;2023-02-15T06:46:51;30.27;;;18.43;;
18726;SDS011;9492;51.888;5.186;2023-02-15T06:49:20;29.83;;;19.23;;
18726;SDS011;9492;51.888;5.186;2023-02-15T06:51:46;31.23;;;18.60;;
18726;SDS011;9492;51.888;5.186;2023-02-15T06:54:12;40.03;;;25.00;;
18726;SDS011;9492;51.888;5.186;2023-02-15T06:56:38;30.70;;;19.10;;
18726;SDS011;9492;51.888;5.186;2023-02-15T06:59:04;30.87;;;18.07;;
18726;SDS011;9492;51.888;5.186;2023-02-15T07:01:30;33.80;;;20.07;;
18726;SDS011;9492;51.888;5.186;2023-02-15T07:03:56;34.63;;;22.57;;
18726;SDS011;9492;51.888;5.186;2023-02-15T07:06:22;31.07;;;20.43;;
18726;SDS011;9492;51.888;5.186;2023-02-15T07:08:48;31.90;;;20.83;;
18726;SDS011;9492;51.888;5.186;2023-02-15T07:11:14;33.40;;;20.80;;
18726;SDS011;9492;51.888;5.186;2023-02-15T07:13:59;62.97;;;26.50;;
18726;SDS011;9492;51.888;5.186;2023-02-15T07:16:25;39.03;;;23.50;;
18726;SDS011;9492;51.888;5.186;2023-02-15T07:18:51;41.50;;;21.27;;
18726;SDS011;9492;51.888;5.186;2023-02-15T07:21:17;49.13;;;21.63;;
18726;SDS011;9492;51.888;5.186;2023-02-15T07:23:43;34.07;;;19.97;;
18726;SDS011;9492;51.888;5.186;2023-02-15T07:26:09;33.80;;;21.00;;
18726;SDS011;9492;51.888;5.186;2023-02-15T07:28:35;37.40;;;20.87;;
18726;SDS011;9492;51.888;5.186;2023-02-15T07:31:05;62.97;;;24.20;;
18726;SDS011;9492;51.888;5.186;2023-02-15T07:33:31;32.97;;;20.70;;
18726;SDS011;9492;51.888;5.186;2023-02-15T07:35:58;32.23;;;20.23;;
18726;SDS011;9492;51.888;5.186;2023-02-15T07:38:26;33.40;;;20.27;;
18726;SDS011;9492;51.888;5.186;2023-02-15T07:40:57;30.67;;;19.73;;
18726;SDS011;9492;51.888;5.186;2023-02-15T07:43:24;32.20;;;19.87;;
18726;SDS011;9492;51.888;5.186;2023-02-15T07:45:50;34.80;;;19.43;;
18726;SDS011;9492;51.888;5.186;2023-02-15T07:48:16;29.43;;;18.40;;
18726;SDS011;9492;51.888;5.186;2023-02-15T07:50:42;34.00;;;18.57;;
18726;SDS011;9492;51.888;5.186;2023-02-15T07:53:08;27.33;;;18.43;;
18726;SDS011;9492;51.888;5.186;2023-02-15T07:55:34;28.17;;;18.57;;
18726;SDS011;9492;51.888;5.186;2023-02-15T07:58:00;29.70;;;18.33;;
18726;SDS011;9492;51.888;5.186;2023-02-15T08:00:26;29.50;;;17.60;;
18726;SDS011;9492;51.888;5.186;2023-02-15T08:02:55;33.23;;;18.80;;
18726;SDS011;9492;51.888;5.186;2023-02-15T08:05:43;34.70;;;19.63;;
18726;SDS011;9492;51.888;5.186;2023-02-15T08:08:10;31.57;;;18.70;;
18726;SDS011;9492;51.888;5.186;2023-02-15T08:10:59;30.00;;;17.83;;
18726;SDS011;9492;51.888;5.186;2023-02-15T08:13:45;33.27;;;18.10;;
18726;SDS011;9492;51.888;5.186;2023-02-15T08:16:21;31.40;;;17.80;;
18726;SDS011;9492;51.888;5.186;2023-02-15T08:18:48;26.97;;;17.70;;
18726;SDS011;9492;51.888;5.186;2023-02-15T08:21:14;27.90;;;17.30;;
18726;SDS011;9492;51.888;5.186;2023-02-15T08:23:42;30.73;;;19.23;;
18726;SDS011;9492;51.888;5.186;2023-02-15T08:26:08;30.07;;;18.53;;
18726;SDS011;9492;51.888;5.186;2023-02-15T08:28:35;31.53;;;18.30;;
18726;SDS011;9492;51.888;5.186;2023-02-15T08:31:07;26.87;;;19.07;;
18726;SDS011;9492;51.888;5.186;2023-02-15T08:33:34;30.30;;;18.03;;
18726;SDS011;9492;51.888;5.186;2023-02-15T08:36:05;33.77;;;18.73;;
18726;SDS011;9492;51.888;5.186;2023-02-15T08:38:37;31.17;;;19.07;;
18726;SDS011;9492;51.888;5.186;2023-02-15T08:41:14;29.57;;;17.90;;
18726;SDS011;9492;51.888;5.186;2023-02-15T08:43:40;31.67;;;18.27;;
18726;SDS011;9492;51.888;5.186;2023-02-15T08:46:07;26.17;;;17.97;;
18726;SDS011;9492;51.888;5.186;2023-02-15T08:48:33;31.17;;;19.70;;
18726;SDS011;9492;51.888;5.186;2023-02-15T08:51:03;26.87;;;17.63;;
18726;SDS011;9492;51.888;5.186;2023-02-15T08:53:32;33.63;;;19.53;;
18726;SDS011;9492;51.888;5.186;2023-02-15T08:55:58;31.87;;;21.07;;
18726;SDS011;9492;51.888;5.186;2023-02-15T08:58:25;28.23;;;18.97;;
18726;SDS011;9492;51.888;5.186;2023-02-15T09:00:51;32.83;;;20.97;;
18726;SDS011;9492;51.888;5.186;2023-02-15T09:03:17;33.07;;;21.17;;
18726;SDS011;9492;51.888;5.186;2023-02-15T09:05:43;46.97;;;26.47;;
18726;SDS011;9492;51.888;5.186;2023-02-15T09:08:09;40.27;;;23.47;;
18726;SDS011;9492;51.888;5.186;2023-02-15T09:10:35;36.80;;;23.20;;
18726;SDS011;9492;51.888;5.186;2023-02-15T09:13:01;30.57;;;19.97;;
18726;SDS011;9492;51.888;5.186;2023-02-15T09:15:27;36.73;;;22.80;;
18726;SDS011;9492;51.888;5.186;2023-02-15T09:17:53;35.07;;;22.37;;
18726;SDS011;9492;51.888;5.186;2023-02-15T09:20:19;30.10;;;19.17;;
18726;SDS011;9492;51.888;5.186;2023-02-15T09:22:45;30.77;;;19.30;;
18726;SDS011;9492;51.888;5.186;2023-02-15T09:25:11;33.07;;;20.37;;
18726;SDS011;9492;51.888;5.186;2023-02-15T09:27:38;33.43;;;22.50;;
18726;SDS011;9492;51.888;5.186;2023-02-15T09:30:05;31.30;;;20.23;;
18726;SDS011;9492;51.888;5.186;2023-02-15T09:32:31;31.73;;;20.17;;
18726;SDS011;9492;51.888;5.186;2023-02-15T09:34:57;32.37;;;20.97;;
18726;SDS011;9492;51.888;5.186;2023-02-15T09:37:23;32.77;;;20.30;;
18726;SDS011;9492;51.888;5.186;2023-02-15T09:39:49;31.47;;;20.77;;
18726;SDS011;9492;51.888;5.186;2023-02-15T09:45:06;33.70;;;21.03;;
18726;SDS011;9492;51.888;5.186;2023-02-15T09:47:43;36.03;;;21.37;;
18726;SDS011;9492;51.888;5.186;2023-02-15T09:52:58;34.93;;;20.47;;
18726;SDS011;9492;51.888;5.186;2023-02-15T09:55:48;34.03;;;22.13;;
18726;SDS011;9492;51.888;5.186;2023-02-15T09:59:18;37.23;;;22.20;;
18726;SDS011;9492;51.888;5.186;2023-02-15T10:16:41;34.67;;;21.93;;
18726;SDS011;9492;51.888;5.186;2023-02-15T10:19:20;33.03;;;22.17;;
18726;SDS011;9492;51.888;5.186;2023-02-15T10:22:05;33.60;;;22.33;;
18726;SDS011;9492;51.888;5.186;2023-02-15T10:24:54;37.50;;;23.03;;
18726;SDS011;9492;51.888;5.186;2023-02-15T10:27:24;34.27;;;22.47;;
18726;SDS011;9492;51.888;5.186;2023-02-15T10:30:08;32.70;;;21.60;;
18726;SDS011;9492;51.888;5.186;2023-02-15T10:32:40;33.80;;;21.00;;
18726;SDS011;9492;51.888;5.186;2023-02-15T10:48:34;34.33;;;22.03;;
18726;SDS011;9492;51.888;5.186;2023-02-15T10:51:02;32.20;;;20.90;;
18726;SDS011;9492;51.888;5.186;2023-02-15T10:58:56;35.37;;;22.60;;
18726;SDS011;9492;51.888;5.186;2023-02-15T11:01:41;35.10;;;22.63;;
18726;SDS011;9492;51.888;5.186;2023-02-15T11:06:55;33.70;;;21.97;;
18726;SDS011;9492;51.888;5.186;2023-02-15T11:09:23;34.27;;;23.37;;
18726;SDS011;9492;51.888;5.186;2023-02-15T11:11:51;34.63;;;23.30;;
18726;SDS011;9492;51.888;5.186;2023-02-15T11:14:23;31.50;;;22.40;;
18726;SDS011;9492;51.888;5.186;2023-02-15T11:16:54;35.57;;;23.53;;
18726;SDS011;9492;51.888;5.186;2023-02-15T11:19:24;34.17;;;22.80;;
18726;SDS011;9492;51.888;5.186;2023-02-15T11:21:57;35.50;;;24.07;;
18726;SDS011;9492;51.888;5.186;2023-02-15T11:24:26;34.80;;;22.10;;
18726;SDS011;9492;51.888;5.186;2023-02-15T11:27:05;36.47;;;23.43;;
18726;SDS011;9492;51.888;5.186;2023-02-15T11:29:33;38.10;;;23.93;;
18726;SDS011;9492;51.888;5.186;2023-02-15T11:32:11;38.30;;;23.97;;
18726;SDS011;9492;51.888;5.186;2023-02-15T11:34:40;36.13;;;23.47;;
18726;SDS011;9492;51.888;5.186;2023-02-15T11:37:15;38.70;;;24.57;;
18726;SDS011;9492;51.888;5.186;2023-02-15T11:39:43;37.60;;;24.10;;
18726;SDS011;9492;51.888;5.186;2023-02-15T11:42:11;40.53;;;25.20;;
18726;SDS011;9492;51.888;5.186;2023-02-15T11:44:43;39.87;;;24.73;;
18726;SDS011;9492;51.888;5.186;2023-02-15T11:47:11;39.33;;;25.50;;
18726;SDS011;9492;51.888;5.186;2023-02-15T11:49:38;41.23;;;25.20;;
18726;SDS011;9492;51.888;5.186;2023-02-15T11:52:05;39.87;;;24.77;;
18726;SDS011;9492;51.888;5.186;2023-02-15T11:54:35;38.97;;;24.87;;
18726;SDS011;9492;51.888;5.186;2023-02-15T11:57:23;38.43;;;24.80;;
18726;SDS011;9492;51.888;5.186;2023-02-15T11:59:51;37.77;;;24.17;;
18726;SDS011;9492;51.888;5.186;2023-02-15T12:02:20;38.83;;;24.67;;
18726;SDS011;9492;51.888;5.186;2023-02-15T12:04:54;42.93;;;25.90;;
18726;SDS011;9492;51.888;5.186;2023-02-15T12:07:25;35.90;;;23.97;;
18726;SDS011;9492;51.888;5.186;2023-02-15T12:12:36;37.83;;;24.93;;
18726;SDS011;9492;51.888;5.186;2023-02-15T12:15:04;40.93;;;25.87;;
18726;SDS011;9492;51.888;5.186;2023-02-15T12:17:40;38.50;;;25.00;;
18726;SDS011;9492;51.888;5.186;2023-02-15T12:22:36;40.37;;;25.57;;
18726;SDS011;9492;51.888;5.186;2023-02-15T12:27:48;41.43;;;25.03;;
18726;SDS011;9492;51.888;5.186;2023-02-15T12:30:20;40.20;;;26.07;;
18726;SDS011;9492;51.888;5.186;2023-02-15T12:35:14;41.03;;;27.93;;
18726;SDS011;9492;51.888;5.186;2023-02-15T12:37:51;37.57;;;26.20;;
18726;SDS011;9492;51.888;5.186;2023-02-15T12:40:19;42.87;;;27.33;;
18726;SDS011;9492;51.888;5.186;2023-02-15T12:42:45;44.37;;;27.17;;
18726;SDS011;9492;51.888;5.186;2023-02-15T12:45:22;36.43;;;25.50;;
18726;SDS011;9492;51.888;5.186;2023-02-15T12:48:07;43.37;;;25.40;;
18726;SDS011;9492;51.888;5.186;2023-02-15T12:50:34;45.57;;;26.03;;
18726;SDS011;9492;51.888;5.186;2023-02-15T12:53:07;42.63;;;27.60;;
18726;SDS011;9492;51.888;5.186;2023-02-15T12:55:33;38.67;;;25.40;;
18726;SDS011;9492;51.888;5.186;2023-02-15T12:58:06;38.77;;;26.07;;
18726;SDS011;9492;51.888;5.186;2023-02-15T13:00:33;39.43;;;25.07;;
18726;SDS011;9492;51.888;5.186;2023-02-15T13:02:59;42.67;;;25.10;;
18726;SDS011;9492;51.888;5.186;2023-02-15T13:05:39;38.87;;;25.20;;
18726;SDS011;9492;51.888;5.186;2023-02-15T13:08:10;39.50;;;25.37;;
18726;SDS011;9492;51.888;5.186;2023-02-15T13:13:26;42.20;;;26.17;;
18726;SDS011;9492;51.888;5.186;2023-02-15T13:15:55;38.37;;;26.17;;
18726;SDS011;9492;51.888;5.186;2023-02-15T13:18:29;38.83;;;26.60;;
18726;SDS011;9492;51.888;5.186;2023-02-15T13:20:57;42.43;;;25.77;;
18726;SDS011;9492;51.888;5.186;2023-02-15T13:25:49;35.10;;;23.37;;
18726;SDS011;9492;51.888;5.186;2023-02-15T13:28:16;39.07;;;25.23;;
18726;SDS011;9492;51.888;5.186;2023-02-15T13:30:45;37.80;;;24.37;;
18726;SDS011;9492;51.888;5.186;2023-02-15T13:36:02;34.63;;;22.30;;
18726;SDS011;9492;51.888;5.186;2023-02-15T13:41:03;38.30;;;23.07;;
18726;SDS011;9492;51.888;5.186;2023-02-15T13:48:45;37.03;;;22.93;;
18726;SDS011;9492;51.888;5.186;2023-02-15T13:51:21;35.97;;;24.13;;
18726;SDS011;9492;51.888;5.186;2023-02-15T13:59:02;36.43;;;24.27;;
18726;SDS011;9492;51.888;5.186;2023-02-15T14:04:20;36.03;;;25.40;;
18726;SDS011;9492;51.888;5.186;2023-02-15T14:09:21;37.70;;;25.37;;
18726;SDS011;9492;51.888;5.186;2023-02-15T14:16:58;37.23;;;26.80;;
18726;SDS011;9492;51.888;5.186;2023-02-15T14:22:00;36.50;;;24.80;;
18726;SDS011;9492;51.888;5.186;2023-02-15T14:24:33;40.83;;;28.10;;
18726;SDS011;9492;51.888;5.186;2023-02-15T14:27:13;40.20;;;26.50;;
18726;SDS011;9492;51.888;5.186;2023-02-15T14:29:44;37.47;;;23.90;;
18726;SDS011;9492;51.888;5.186;2023-02-15T14:32:18;39.40;;;25.07;;
18726;SDS011;9492;51.888;5.186;2023-02-15T14:37:11;38.60;;;24.90;;
18726;SDS011;9492;51.888;5.186;2023-02-15T14:39:46;35.10;;;23.80;;
18726;SDS011;9492;51.888;5.186;2023-02-15T14:42:53;37.97;;;24.70;;
18726;SDS011;9492;51.888;5.186;2023-02-15T14:48:04;38.60;;;24.20;;
18726;SDS011;9492;51.888;5.186;2023-02-15T14:55:46;35.10;;;23.27;;
18726;SDS011;9492;51.888;5.186;2023-02-15T14:58:12;36.07;;;22.87;;
18726;SDS011;9492;51.888;5.186;2023-02-15T15:00:39;38.07;;;23.20;;
18726;SDS011;9492;51.888;5.186;2023-02-15T15:03:16;36.03;;;23.43;;
18726;SDS011;9492;51.888;5.186;2023-02-15T15:05:51;35.23;;;23.83;;
18726;SDS011;9492;51.888;5.186;2023-02-15T15:08:37;33.80;;;22.97;;
18726;SDS011;9492;51.888;5.186;2023-02-15T15:13:52;38.23;;;25.00;;
18726;SDS011;9492;51.888;5.186;2023-02-15T15:18:51;33.83;;;22.13;;
18726;SDS011;9492;51.888;5.186;2023-02-15T15:24:02;37.53;;;24.53;;
18726;SDS011;9492;51.888;5.186;2023-02-15T15:26:30;33.07;;;22.47;;
18726;SDS011;9492;51.888;5.186;2023-02-15T15:29:01;32.60;;;22.83;;
18726;SDS011;9492;51.888;5.186;2023-02-15T15:31:43;34.93;;;23.87;;
18726;SDS011;9492;51.888;5.186;2023-02-15T15:49:37;39.97;;;23.57;;
18726;SDS011;9492;51.888;5.186;2023-02-15T15:52:12;34.30;;;22.90;;
18726;SDS011;9492;51.888;5.186;2023-02-15T15:54:42;38.87;;;26.03;;
18726;SDS011;9492;51.888;5.186;2023-02-15T15:57:14;38.37;;;23.93;;
18726;SDS011;9492;51.888;5.186;2023-02-15T15:59:44;34.80;;;22.03;;
18726;SDS011;9492;51.888;5.186;2023-02-15T16:02:12;35.20;;;23.30;;
18726;SDS011;9492;51.888;5.186;2023-02-15T16:04:40;35.10;;;23.80;;
18726;SDS011;9492;51.888;5.186;2023-02-15T16:12:27;39.23;;;24.93;;
18726;SDS011;9492;51.888;5.186;2023-02-15T16:14:54;36.33;;;24.63;;
18726;SDS011;9492;51.888;5.186;2023-02-15T16:17:25;37.17;;;24.73;;
18726;SDS011;9492;51.888;5.186;2023-02-15T16:22:42;43.07;;;25.37;;
18726;SDS011;9492;51.888;5.186;2023-02-15T16:25:17;54.87;;;26.37;;
18726;SDS011;9492;51.888;5.186;2023-02-15T16:27:46;40.90;;;25.73;;
18726;SDS011;9492;51.888;5.186;2023-02-15T16:32:46;38.77;;;24.80;;
18726;SDS011;9492;51.888;5.186;2023-02-15T16:35:16;41.60;;;25.63;;
18726;SDS011;9492;51.888;5.186;2023-02-15T16:37:42;35.97;;;24.23;;
18726;SDS011;9492;51.888;5.186;2023-02-15T16:42:51;41.90;;;25.13;;
18726;SDS011;9492;51.888;5.186;2023-02-15T16:45:18;36.77;;;24.60;;
18726;SDS011;9492;51.888;5.186;2023-02-15T16:47:49;38.73;;;25.17;;
18726;SDS011;9492;51.888;5.186;2023-02-15T16:50:20;39.83;;;24.50;;
18726;SDS011;9492;51.888;5.186;2023-02-15T16:52:46;43.33;;;25.63;;
18726;SDS011;9492;51.888;5.186;2023-02-15T16:55:20;39.67;;;24.77;;
18726;SDS011;9492;51.888;5.186;2023-02-15T16:57:47;38.57;;;24.77;;
18726;SDS011;9492;51.888;5.186;2023-02-15T17:00:18;38.83;;;25.60;;
18726;SDS011;9492;51.888;5.186;2023-02-15T17:05:24;41.07;;;24.97;;
18726;SDS011;9492;51.888;5.186;2023-02-15T17:10:25;43.00;;;26.17;;
18726;SDS011;9492;51.888;5.186;2023-02-15T17:12:55;49.87;;;24.97;;
18726;SDS011;9492;51.888;5.186;2023-02-15T17:15:26;44.67;;;26.30;;
18726;SDS011;9492;51.888;5.186;2023-02-15T17:17:55;39.53;;;24.93;;
18726;SDS011;9492;51.888;5.186;2023-02-15T17:20:22;46.10;;;25.07;;
18726;SDS011;9492;51.888;5.186;2023-02-15T17:22:49;41.80;;;24.90;;
18726;SDS011;9492;51.888;5.186;2023-02-15T17:25:19;39.00;;;23.43;;
18726;SDS011;9492;51.888;5.186;2023-02-15T17:27:50;36.40;;;23.30;;
18726;SDS011;9492;51.888;5.186;2023-02-15T17:30:32;37.07;;;24.60;;
18726;SDS011;9492;51.888;5.186;2023-02-15T17:33:02;43.90;;;25.80;;
18726;SDS011;9492;51.888;5.186;2023-02-15T17:35:29;37.90;;;24.73;;
18726;SDS011;9492;51.888;5.186;2023-02-15T17:38:00;40.70;;;25.10;;
18726;SDS011;9492;51.888;5.186;2023-02-15T17:40:27;42.37;;;26.00;;